Αναφορές Αεροδρομίων

 

KSJC - San Jose, California, USA
Distance from station: ΒΑ 14km
Ενημερώθηκε: 01/10/2020 18:53
Smoke, Haze, Συννεφιά
Smoke, Haze, Συννεφιά
 Ανεμος από Ν
Ανεμος: Ν 6 km/h
Θερμοκρασία: 21°C
Σημείο Δρόσου: 10°C
Υγρασία: 50%
Βαρόμετρο: 1015.9 hPa
Περίληψη: Smoke, Haze
Clouds: Συννεφιά
Visibility: 8 km
Cloud details: Few Clouds 30 m
Σχεδόν νεφελώδης 732 m
Συννεφιά 1006 m
2020/10/01 15:53 KSJC 011553Z 17003KT 5SM FU HZ FEW001 BKN024 OVC033 21/10 A3000 RMK AO2 SLP159 FU FEW001 FU BKN024 FU OVC033 T02110100
KNUQ - Moffett Nas/Mtn, California, USA
Distance from station: Β 14km
Ενημερώθηκε: 01/10/2020 16:55
NOT Current
Smoke, Συννεφιά
Smoke, Συννεφιά
 Ανεμος από calm
Ανεμος: Απνοια
Θερμοκρασία: 18°C
Σημείο Δρόσου: 12°C
Υγρασία: 68%
Βαρόμετρο: 1015.2 hPa
Περίληψη: Smoke
Clouds: Συννεφιά
Visibility: 8 km
Cloud details: Μερικώς νεφελώδης 1158 m
Συννεφιά 1402 m
2020/10/01 13:55 KNUQ 011355Z 00000KT 5SM FU SCT038 OVC046 18/12 A2998 RMK AO2
 
KPAO - Palo Alto, California, USA
Distance from station: ΒΒΔ 23km
Ενημερώθηκε: 01/10/2020 04:47
NOT Current
Smoke, Αίθριος
Smoke, Αίθριος
 Ανεμος από ΒΒΔ
Ανεμος: ΒΒΔ 7 km/h
Θερμοκρασία: 23°C
Σημείο Δρόσου: 14°C
Υγρασία: 57%
Βαρόμετρο: 1015.2 hPa
Περίληψη: Smoke
Clouds: Αίθριος
Visibility: 10 km
2020/10/01 01:47 KPAO 010147Z 33004KT 6SM FU SKC 23/14 A2998 RMK LAST
KRHV - San Jose/Reid, California, USA
Distance from station: ΑΒΑ 19km
Ενημερώθηκε: 01/10/2020 18:47
Smoke, Αίθριος
Smoke, Αίθριος
 Ανεμος από calm
Ανεμος: Απνοια
Θερμοκρασία: 21°C
Σημείο Δρόσου: 11°C
Υγρασία: 53%
Βαρόμετρο: 1016.3 hPa
Περίληψη: Smoke
Clouds: Αίθριος
Visibility: 8 km
2020/10/01 15:47 KRHV 011547Z 00000KT 5SM FU SKC 21/11 A3001
 
KOAK - Oakland, California, USA
Distance from station: ΒΒΔ 50km
Ενημερώθηκε: 01/10/2020 18:53
Smoke, Haze, Σχεδόν νεφελώδης
Smoke, Haze, Σχεδόν νεφελώδης
 Ανεμος από calm
Ανεμος: Απνοια
Θερμοκρασία: 22°C
Σημείο Δρόσου: 14°C
Υγρασία: 61%
Βαρόμετρο: 1016.3 hPa
Περίληψη: Smoke, Haze
Clouds: Σχεδόν νεφελώδης
Visibility: 5 km
Cloud details: Few Clouds 610 m
Σχεδόν νεφελώδης 1219 m
2020/10/01 15:53 KOAK 011553Z 00000KT 3SM FU HZ FEW020 BKN040 22/14 A3001 RMK AO2 SLP161 FU FEW020 FU BKN040 T02170144
KSQL - San Carlos Airpo, California, USA
Distance from station: ΒΔ 34km
Ενημερώθηκε: 01/10/2020 17:48
NOT Current
Μερικώς νεφελώδης
Μερικώς νεφελώδης
 Ανεμος από calm
Ανεμος: Απνοια
Θερμοκρασία: 18°C
Σημείο Δρόσου: 11°C
Υγρασία: 64%
Βαρόμετρο: 1015.9 hPa
Clouds: Μερικώς νεφελώδης
Visibility: 11 km
Cloud details: Few Clouds 640 m
Μερικώς νεφελώδης 884 m
2020/10/01 14:48 KSQL 011448Z 00000KT 7SM FEW021 SCT029 18/11 A3000
 
KSFO - San Francisco, California, USA
Distance from station: ΒΔ 49km
Ενημερώθηκε: 01/10/2020 18:56
Συννεφιά
Συννεφιά
 Ανεμος από calm
Ανεμος: Απνοια
Θερμοκρασία: 21°C
Σημείο Δρόσου: 12°C
Υγρασία: 57%
Βαρόμετρο: 1015.9 hPa
Clouds: Συννεφιά
Visibility: 13 km
Cloud details: Few Clouds 274 m
Συννεφιά 1433 m
2020/10/01 15:56 KSFO 011556Z 00000KT 8SM FEW009 OVC047 21/12 A3000 RMK AO2 SLP158 T02110117
KE16 - San Martin, California, USA
Distance from station: ΑΝΑ 43km
Ενημερώθηκε: 01/10/2020 19:10
Αίθριος
Αίθριος
 Ανεμος από calm
Ανεμος: Απνοια
Θερμοκρασία: 19°C
Σημείο Δρόσου: 9°C
Υγρασία: 52%
Βαρόμετρο: 1017.3 hPa
Clouds: Αίθριος
Visibility: 11 km
2020/10/01 16:10 KE16 011610Z AUTO 00000KT 7SM CLR 19/09 A3004 RMK AO2
 
KWVI - Watsonville, California, USA
Distance from station: ΝΝΑ 44km
Ενημερώθηκε: 01/10/2020 18:53
Haze, Αίθριος
Haze, Αίθριος
 Ανεμος από ΒΒΔ
Ανεμος: ΒΒΔ 6 km/h
Θερμοκρασία: 20°C
Σημείο Δρόσου: 12°C
Υγρασία: 60%
Βαρόμετρο: 1015.9 hPa
Περίληψη: Haze
Clouds: Αίθριος
Visibility: 10 km
2020/10/01 15:53 KWVI 011553Z AUTO 34003KT 6SM HZ CLR 20/12 A3000 RMK AO2 SLP159 T02000117
KHAF - Half Moon Bay, California, USA
Distance from station: ΔΒΔ 50km
Ενημερώθηκε: 01/10/2020 18:35
Haze, Αίθριος
Haze, Αίθριος
 
Θερμοκρασία: 14°C
Σημείο Δρόσου: 12°C
Υγρασία: 88%
Βαρόμετρο: 1015.9 hPa
Περίληψη: Haze
Clouds: Αίθριος
Visibility: 5 km
2020/10/01 15:35 KHAF 011535Z AUTO 3SM HZ CLR 14/12 A3000 RMK AO2
 
KHWD - Hayward, California, USA
Distance from station: Β 44km
Ενημερώθηκε: 01/10/2020 18:54
Αίθριος
Αίθριος
 Ανεμος από calm
Ανεμος: Απνοια
Θερμοκρασία: 23°C
Σημείο Δρόσου: 8°C
Υγρασία: 38%
Βαρόμετρο: 1015.9 hPa
Clouds: Αίθριος
Visibility: 13 km
2020/10/01 15:54 KHWD 011554Z 00000KT 8SM CLR 23/08 A3000 RMK AO2 SLP167 T02280083
KLVK - Livermore, California, USA
Distance from station: ΒΒΑ 51km
Ενημερώθηκε: 01/10/2020 19:03
Haze, Smoke, Αίθριος
Haze, Smoke, Αίθριος
 Ανεμος από calm
Ανεμος: Απνοια
Θερμοκρασία: 20°C
Σημείο Δρόσου: 12°C
Υγρασία: 60%
Βαρόμετρο: 1016.6 hPa
Περίληψη: Haze, Smoke
Clouds: Αίθριος
Visibility: 5 km
2020/10/01 16:03 KLVK 011603Z 00000KT 3SM HZ FU CLR 20/12 A3002 RMK AO2 T02000122